Time;durP1;ratioP1;P1;durP2;ratioP2;P2;SDS_P1;SDS_P2;PMS_P1;PMS_P2;Temp;Humidity;BMP_temperature;BMP_pressure;BME280_temperature;BME280_humidity;BME280_pressure;Samples;Min_cycle;Max_cycle;Signal;HPM_P1;HPM_P2
2023/02/01 00:04:21;;;;;;;0.40;0.00;;;0.00;92.80;;;;;;20904493;28;20044;-59
2023/02/01 00:14:23;;;;;;;0.10;0.00;;;-0.20;90.80;;;;;;20903797;28;20033;-59
2023/02/01 00:24:24;;;;;;;0.10;0.00;;;-0.30;93.60;;;;;;20903241;28;20033;-58
2023/02/01 00:34:26;;;;;;;0.30;0.10;;;0.00;91.10;;;;;;20902621;28;20024;-58
2023/02/01 00:44:28;;;;;;;0.17;0.00;;;0.00;90.60;;;;;;20902105;28;20075;-59
2023/02/01 00:54:29;;;;;;;0.10;0.00;;;-0.10;91.60;;;;;;20900266;28;20029;-59
2023/02/01 01:04:31;;;;;;;0.03;0.03;;;0.30;87.70;;;;;;20898434;28;20048;-59
2023/02/01 01:14:33;;;;;;;0.30;0.00;;;0.50;89.70;;;;;;20898384;28;20107;-57
2023/02/01 01:24:35;;;;;;;0.70;0.03;;;0.40;89.70;;;;;;20900946;28;20557;-59
2023/02/01 01:34:36;;;;;;;0.52;0.10;;;0.60;86.60;;;;;;20908621;28;20021;-60
2023/02/01 01:45:03;;;;;;;0.10;0.00;;;0.60;90.00;;;;;;20915529;28;20040;-60
2023/02/01 01:55:07;;;;;;;0.32;0.00;;;0.30;89.90;;;;;;20893859;28;20130;-59
2023/02/01 02:05:10;;;;;;;0.00;0.00;;;-0.20;92.20;;;;;;20913826;28;20045;-60
2023/02/01 02:15:14;;;;;;;0.30;0.00;;;-0.40;91.90;;;;;;20913305;28;20462;-59
2023/02/01 02:25:48;;;;;;;0.10;0.00;;;-0.20;91.70;;;;;;20912659;28;20083;-59
2023/02/01 02:36:01;;;;;;;0.57;0.00;;;0.10;91.10;;;;;;20892345;28;20079;-59
2023/02/01 03:07:34;;;;;;;0.10;0.00;;;0.10;92.20;;;;;;20889012;28;20036;-59
2023/02/01 03:17:41;;;;;;;0.20;0.00;;;0.10;91.70;;;;;;20884432;28;20025;-59
2023/02/01 03:27:54;;;;;;;0.13;0.00;;;0.10;91.90;;;;;;20908812;28;20067;-57
2023/02/01 03:38:08;;;;;;;0.03;0.00;;;-0.10;93.30;;;;;;20885943;28;20063;-58
2023/02/01 03:48:14;;;;;;;0.10;0.00;;;-0.30;92.40;;;;;;20888432;28;20486;-59
2023/02/01 03:58:19;;;;;;;0.10;0.00;;;-0.50;93.90;;;;;;20886431;28;20474;-60
2023/02/01 04:08:22;;;;;;;0.00;0.00;;;-0.50;94.60;;;;;;20905724;28;20037;-60
2023/02/01 04:18:24;;;;;;;0.00;0.00;;;-0.20;93.30;;;;;;20903616;28;20029;-59
2023/02/01 04:28:25;;;;;;;0.00;0.00;;;0.10;91.70;;;;;;20903197;28;20086;-57
2023/02/01 04:38:29;;;;;;;0.05;0.00;;;1.40;85.70;;;;;;20901811;28;20425;-55
2023/02/01 04:48:30;;;;;;;0.00;0.00;;;3.50;71.00;;;;;;20884363;28;20037;-58
2023/02/01 04:58:32;;;;;;;0.00;0.00;;;3.20;80.10;;;;;;20897002;28;20497;-60
2023/02/01 05:08:34;;;;;;;0.10;0.00;;;1.30;86.80;;;;;;20908736;28;20029;-60
2023/02/01 05:18:35;;;;;;;0.00;0.00;;;0.20;90.50;;;;;;20918792;28;20032;-57
2023/02/01 05:28:37;;;;;;;0.10;0.00;;;-0.10;90.10;;;;;;20917025;28;20021;-57
2023/02/01 05:38:38;;;;;;;0.00;0.00;;;0.60;86.70;;;;;;20916379;28;20036;-56
2023/02/01 05:48:40;;;;;;;0.08;0.00;;;1.00;85.20;;;;;;20915246;28;20025;-57
2023/02/01 05:58:42;;;;;;;0.13;0.00;;;0.50;85.10;;;;;;20914236;28;20096;-57
2023/02/01 06:08:43;;;;;;;0.00;0.00;;;2.30;71.30;;;;;;20908840;28;20078;-58
2023/02/01 06:18:45;;;;;;;0.90;0.00;;;3.20;74.60;;;;;;20912510;28;20028;-56
2023/02/01 06:28:47;;;;;;;0.50;0.05;;;2.60;75.40;;;;;;20913423;28;20033;-59
2023/02/01 06:38:48;;;;;;;0.10;0.00;;;3.30;76.90;;;;;;20907279;28;20041;-58
2023/02/01 06:48:50;;;;;;;0.75;0.20;;;2.90;75.50;;;;;;20911017;28;20059;-58
2023/02/01 06:58:52;;;;;;;0.00;0.00;;;2.30;79.50;;;;;;20909761;28;20037;-59
2023/02/01 07:08:57;;;;;;;0.40;0.10;;;1.60;82.70;;;;;;20909467;28;20021;-59
2023/02/01 07:18:59;;;;;;;0.32;0.08;;;0.70;88.10;;;;;;20905983;28;20033;-58
2023/02/01 07:29:01;;;;;;;2.10;0.10;;;0.10;88.50;;;;;;20902961;28;20029;-56
2023/02/01 07:39:03;;;;;;;0.20;0.00;;;-0.10;90.80;;;;;;20902094;28;20098;-57
2023/02/01 07:49:06;;;;;;;0.10;0.10;;;0.10;90.00;;;;;;20905913;28;20033;-60
2023/02/01 07:59:07;;;;;;;0.10;0.10;;;0.70;88.60;;;;;;20905274;28;20045;-59
2023/02/01 08:09:10;;;;;;;0.20;0.10;;;1.70;89.10;;;;;;20886838;28;20025;-59
2023/02/01 08:19:12;;;;;;;0.30;0.10;;;2.60;84.80;;;;;;20903950;28;20130;-60
2023/02/01 08:29:14;;;;;;;0.20;0.10;;;3.20;83.30;;;;;;20903192;28;20025;-56
2023/02/01 08:39:15;;;;;;;0.22;0.10;;;3.30;87.20;;;;;;20902868;28;20025;-58
2023/02/01 08:49:17;;;;;;;0.15;0.08;;;4.20;81.30;;;;;;20885948;28;20095;-58
2023/02/01 08:59:18;;;;;;;1.45;0.10;;;5.40;79.50;;;;;;20902010;28;20063;-56
2023/02/01 09:09:20;;;;;;;0.32;0.10;;;6.50;76.80;;;;;;20901803;28;20021;-55
2023/02/01 09:19:21;;;;;;;0.20;0.10;;;7.00;78.60;;;;;;20901012;28;20626;-56
2023/02/01 09:29:23;;;;;;;0.60;0.25;;;7.80;74.00;;;;;;20900868;28;20025;-55
2023/02/01 09:39:25;;;;;;;0.52;0.20;;;8.20;79.60;;;;;;20900550;28;20394;-57
2023/02/01 09:49:30;;;;;;;0.80;0.40;;;8.50;76.10;;;;;;20900781;28;20033;-53
2023/02/01 09:59:40;;;;;;;1.30;0.50;;;7.70;76.10;;;;;;20913295;28;20468;-56
2023/02/01 10:10:00;;;;;;;1.87;0.70;;;8.30;79.30;;;;;;20911325;28;20036;-54
2023/02/01 10:20:30;;;;;;;1.13;0.50;;;9.10;75.90;;;;;;20907752;28;20037;-55
2023/02/01 10:30:40;;;;;;;1.02;0.50;;;9.00;75.30;;;;;;20913531;28;20032;-56
2023/02/01 10:40:42;;;;;;;0.70;0.40;;;9.40;69.90;;;;;;20894626;28;20037;-56
2023/02/01 10:51:30;;;;;;;2.20;0.70;;;9.80;75.10;;;;;;20910739;28;20033;-56
2023/02/01 11:01:41;;;;;;;2.42;0.88;;;9.90;74.00;;;;;;20574871;28;20050;-56
2023/02/01 11:11:48;;;;;;;;;;;9.80;72.40;;;;;;20575328;28;20046;-56
2023/02/01 11:21:56;;;;;;;2.47;0.90;;;10.40;73.20;;;;;;20572946;28;19918;-53
2023/02/01 11:31:59;;;;;;;2.20;1.00;;;10.60;73.30;;;;;;20663979;28;20118;-54
2023/02/01 11:42:11;;;;;;;1.60;0.90;;;10.80;67.80;;;;;;20889838;28;20037;-53
2023/02/01 11:52:38;;;;;;;3.63;0.85;;;10.70;70.00;;;;;;20907353;28;20032;-55
2023/02/01 12:03:01;;;;;;;1.75;1.25;;;11.50;66.70;;;;;;20904598;28;20107;-54
2023/02/01 12:13:32;;;;;;;1.27;0.82;;;11.50;73.60;;;;;;20905775;28;20039;-57
2023/02/01 12:23:52;;;;;;;1.63;0.93;;;11.50;69.10;;;;;;20890397;28;20049;-57
2023/02/01 12:34:20;;;;;;;;;;;11.50;71.20;;;;;;20903181;28;20041;-58
2023/02/01 12:44:27;;;;;;;2.17;0.90;;;11.30;70.20;;;;;;20566648;28;19918;-55
2023/02/01 12:54:29;;;;;;;2.72;0.90;;;10.70;69.50;;;;;;20567022;28;20427;-57
2023/02/01 13:04:46;;;;;;;2.55;1.52;;;10.80;66.80;;;;;;20568184;28;20432;-58
2023/02/01 13:14:52;;;;;;;3.17;1.48;;;10.80;70.70;;;;;;20648134;28;20067;-53
2023/02/01 13:25:15;;;;;;;2.53;1.55;;;10.80;68.90;;;;;;20900951;28;20029;-54
2023/02/01 13:35:26;;;;;;;3.70;2.17;;;10.40;69.60;;;;;;20916449;28;20025;-56
2023/02/01 13:45:34;;;;;;;2.65;1.50;;;9.60;71.40;;;;;;20913915;28;20059;-55
2023/02/01 13:55:38;;;;;;;5.47;2.60;;;8.50;70.90;;;;;;20914671;28;20056;-57
2023/02/01 14:05:39;;;;;;;3.15;1.67;;;8.10;76.30;;;;;;20910827;28;20056;-57
2023/02/01 14:16:04;;;;;;;2.25;1.10;;;7.50;76.40;;;;;;20893501;28;20098;-59
2023/02/01 14:26:09;;;;;;;2.60;1.33;;;7.00;72.60;;;;;;20909705;28;20033;-58
2023/02/01 14:36:13;;;;;;;2.67;1.10;;;6.90;71.90;;;;;;20910806;28;20439;-57
2023/02/01 14:46:15;;;;;;;2.05;1.05;;;6.50;71.60;;;;;;20893505;28;20095;-57
2023/02/01 14:56:20;;;;;;;1.85;1.00;;;6.40;74.10;;;;;;20908148;28;20037;-58
2023/02/01 15:06:41;;;;;;;4.85;1.20;;;6.10;76.10;;;;;;20892072;28;20109;-57
2023/02/01 15:16:49;;;;;;;2.83;0.70;;;5.70;81.30;;;;;;20907158;28;20043;-58
2023/02/01 15:26:53;;;;;;;1.40;0.70;;;5.30;84.90;;;;;;20907770;28;20086;-58
2023/02/01 15:37:05;;;;;;;1.30;0.73;;;4.70;86.10;;;;;;20889373;28;20083;-59
2023/02/01 15:47:17;;;;;;;1.88;0.70;;;3.90;89.50;;;;;;20906335;28;20040;-58
2023/02/01 15:57:42;;;;;;;2.03;0.77;;;3.40;91.90;;;;;;20904814;28;20045;-59
2023/02/01 16:08:03;;;;;;;2.50;0.90;;;2.80;92.00;;;;;;20901550;28;20029;-60
2023/02/01 16:18:07;;;;;;;3.20;1.50;;;2.30;92.90;;;;;;20903533;28;20104;-60
2023/02/01 16:28:09;;;;;;;9.48;4.07;;;2.00;94.00;;;;;;20901529;28;20066;-60
2023/02/01 16:38:12;;;;;;;6.00;3.28;;;1.50;94.60;;;;;;20900603;28;20029;-60
2023/02/01 16:48:26;;;;;;;3.25;1.15;;;1.40;95.70;;;;;;20899376;28;20033;-59
2023/02/01 16:58:28;;;;;;;1.98;0.90;;;1.30;95.90;;;;;;20901550;28;20029;-60
2023/02/01 17:08:35;;;;;;;2.60;1.25;;;1.00;94.70;;;;;;20917701;28;20033;-59
2023/02/01 17:18:36;;;;;;;3.08;0.80;;;0.90;96.30;;;;;;20917985;28;20028;-59
2023/02/01 17:28:38;;;;;;;1.65;0.55;;;0.60;96.20;;;;;;20917282;28;20025;-59
2023/02/01 17:38:41;;;;;;;0.98;0.45;;;0.60;94.10;;;;;;20911957;28;20037;-60
2023/02/01 17:48:42;;;;;;;2.78;0.70;;;0.50;95.20;;;;;;20915672;28;20044;-60
2023/02/01 17:58:45;;;;;;;1.73;0.73;;;0.40;92.90;;;;;;20914555;28;20127;-60
2023/02/01 18:08:47;;;;;;;2.10;0.63;;;0.40;93.30;;;;;;20911881;28;20048;-60
2023/02/01 18:18:49;;;;;;;1.27;0.50;;;0.40;93.90;;;;;;20912421;28;20102;-60
2023/02/01 18:28:51;;;;;;;0.70;0.30;;;0.40;91.50;;;;;;20911397;28;20106;-59
2023/02/01 18:38:55;;;;;;;2.03;0.30;;;0.60;90.10;;;;;;20907084;28;20374;-61
2023/02/01 18:48:56;;;;;;;1.23;0.30;;;1.10;87.70;;;;;;20909304;28;20033;-60
2023/02/01 18:58:59;;;;;;;0.75;0.32;;;1.00;86.60;;;;;;20909964;28;20079;-60
2023/02/01 19:09:00;;;;;;;1.33;0.43;;;0.90;86.40;;;;;;20909520;28;20486;-60
2023/02/01 19:19:02;;;;;;;1.55;0.30;;;0.80;88.00;;;;;;20908905;28;20021;-60
2023/02/01 19:29:04;;;;;;;0.20;0.10;;;0.40;87.70;;;;;;20904402;28;20297;-60
2023/02/01 19:39:06;;;;;;;0.52;0.10;;;0.10;81.20;;;;;;20888789;28;20044;-60
2023/02/01 19:49:10;;;;;;;0.70;0.10;;;0.50;84.30;;;;;;20906586;28;20029;-60
2023/02/01 19:59:13;;;;;;;0.60;0.10;;;0.40;83.60;;;;;;20905712;28;20037;-60
2023/02/01 20:09:17;;;;;;;0.60;0.20;;;0.70;81.70;;;;;;20904958;28;20540;-60
2023/02/01 20:19:19;;;;;;;0.80;0.20;;;0.70;82.80;;;;;;20904371;28;20535;-60
2023/02/01 20:29:21;;;;;;;1.10;0.13;;;0.70;82.20;;;;;;20903602;28;20547;-58
2023/02/01 20:39:23;;;;;;;0.38;0.10;;;0.40;84.40;;;;;;20902517;28;20048;-59
2023/02/01 20:49:25;;;;;;;0.95;0.28;;;0.20;85.80;;;;;;20902640;28;20432;-58
2023/02/01 20:59:27;;;;;;;0.45;0.17;;;0.00;87.50;;;;;;20898237;28;20486;-59
2023/02/01 21:09:30;;;;;;;0.55;0.20;;;-0.20;85.90;;;;;;20902678;28;20051;-58
2023/02/01 21:19:41;;;;;;;0.43;0.20;;;0.10;85.50;;;;;;20901425;28;20432;-59
2023/02/01 21:29:43;;;;;;;1.30;0.40;;;0.30;82.00;;;;;;20900946;28;20048;-59
2023/02/01 21:39:44;;;;;;;0.35;0.15;;;0.30;83.80;;;;;;20900448;28;20033;-59
2023/02/01 21:49:47;;;;;;;0.20;0.00;;;0.40;79.70;;;;;;20905781;28;20029;-58
2023/02/01 21:59:49;;;;;;;0.47;0.10;;;0.90;77.20;;;;;;20914965;28;20041;-59
2023/02/01 22:09:51;;;;;;;2.08;0.10;;;0.20;79.30;;;;;;20915549;28;20044;-59
2023/02/01 22:19:53;;;;;;;0.45;0.10;;;0.10;78.70;;;;;;20913521;28;20478;-59
2023/02/01 22:29:55;;;;;;;0.63;0.10;;;-0.10;86.70;;;;;;20911473;28;20106;-58
2023/02/01 22:39:57;;;;;;;0.20;0.10;;;-0.80;85.40;;;;;;20907551;28;20032;-59
2023/02/01 22:49:59;;;;;;;0.35;0.10;;;-0.70;85.50;;;;;;20911519;28;20025;-59
2023/02/01 23:00:01;;;;;;;0.22;0.10;;;-0.20;79.90;;;;;;20909943;28;20040;-60
2023/02/01 23:10:03;;;;;;;1.58;0.10;;;0.10;81.80;;;;;;20909885;28;20029;-58
2023/02/01 23:20:07;;;;;;;0.10;0.05;;;0.20;80.80;;;;;;20908814;28;20501;-60
2023/02/01 23:30:11;;;;;;;0.32;0.10;;;-0.20;83.20;;;;;;20908181;28;20025;-58
2023/02/01 23:40:13;;;;;;;1.27;0.13;;;-0.30;83.70;;;;;;20896606;28;20025;-59
2023/02/01 23:50:15;;;;;;;0.68;0.13;;;-0.50;84.90;;;;;;20907059;28;20051;-58
